Time;durP1;ratioP1;P1;durP2;ratioP2;P2;SDS_P1;SDS_P2;PMS_P1;PMS_P2;Temp;Humidity;BMP_temperature;BMP_pressure;BME280_temperature;BME280_humidity;BME280_pressure;Samples;Min_cycle;Max_cycle;Signal;HPM_P1;HPM_P2
2023/09/20 00:01:26;;;;;;;0.00;0.00;;;;;;;18.14;nan;97998.66;7394110;19;20006;-49
2023/09/20 00:03:52;;;;;;;0.00;0.00;;;;;;;16.96;nan;97990.78;7397114;19;20021;-49
2023/09/20 00:06:18;;;;;;;3.83;0.30;;;;;;;17.29;nan;97984.72;7393035;19;20015;-49
2023/09/20 00:08:44;;;;;;;0.13;0.13;;;;;;;17.38;nan;97986.97;7393855;19;20013;-49
2023/09/20 00:11:15;;;;;;;0.00;0.00;;;;;;;17.68;nan;97980.50;7394271;19;20473;-52
2023/09/20 00:13:42;;;;;;;0.43;0.38;;;;;;;21.28;nan;97946.44;7393824;19;20031;-49
2023/09/20 00:16:16;;;;;;;0.45;0.10;;;;;;;21.87;nan;97952.97;7397208;19;20018;-66
2023/09/20 00:18:43;;;;;;;0.20;0.00;;;;;;;19.32;nan;97936.72;7390977;19;20015;-55
2023/09/20 00:21:10;;;;;;;0.10;0.10;;;;;;;20.01;nan;97942.28;7394355;19;20018;-55
2023/09/20 00:23:36;;;;;;;0.55;0.10;;;;;;;18.72;nan;97940.19;7392912;19;20013;-55
2023/09/20 00:26:03;;;;;;;0.00;0.00;;;;;;;18.28;nan;97942.03;7393719;19;20011;-55
2023/09/20 00:28:30;;;;;;;0.10;0.00;;;;;;;17.85;nan;97948.88;7391844;19;20018;-55
2023/09/20 00:30:57;;;;;;;0.00;0.00;;;;;;;17.36;nan;97943.81;7391425;19;20565;-55
2023/09/20 00:33:24;;;;;;;0.00;0.00;;;;;;;18.03;nan;97945.59;7391607;19;20483;-57
2023/09/20 00:35:52;;;;;;;0.00;0.00;;;;;;;18.10;nan;97936.31;7392057;19;20018;-57
2023/09/20 00:38:18;;;;;;;0.10;0.10;;;;;;;18.08;nan;97943.88;7395487;19;20015;-57
2023/09/20 00:40:47;;;;;;;0.43;0.08;;;;;;;18.06;nan;97938.78;7393926;19;20017;-57
2023/09/20 00:43:22;;;;;;;0.47;0.08;;;;;;;18.01;nan;97945.41;7394350;19;20015;-57
2023/09/20 00:45:49;;;;;;;0.03;0.03;;;;;;;18.09;nan;97943.28;7392321;19;20348;-58
2023/09/20 00:48:17;;;;;;;0.00;0.00;;;;;;;17.89;nan;97938.72;7402957;19;20043;-57
2023/09/20 00:50:45;;;;;;;0.00;0.00;;;;;;;17.89;nan;97944.34;7404235;19;20462;-57
2023/09/20 00:53:13;;;;;;;0.10;0.10;;;;;;;17.76;nan;97941.78;7400306;19;20010;-58
2023/09/20 00:55:42;;;;;;;0.05;0.05;;;;;;;18.22;nan;97942.25;7397288;19;20015;-58
2023/09/20 00:58:15;;;;;;;0.00;0.00;;;;;;;17.91;nan;97924.78;7401696;19;20042;-59
2023/09/20 01:00:43;;;;;;;0.10;0.10;;;;;;;18.63;nan;97918.28;7399829;19;20018;-59
2023/09/20 01:03:11;;;;;;;0.10;0.10;;;;;;;18.04;nan;97923.81;7401397;19;20355;-58
2023/09/20 01:05:39;;;;;;;0.00;0.00;;;;;;;17.45;nan;97923.53;7399813;19;20018;-58
2023/09/20 01:08:11;;;;;;;0.00;0.00;;;;;;;17.43;nan;97928.97;7399164;19;20506;-58
2023/09/20 01:10:42;;;;;;;0.10;0.00;;;;;;;18.33;nan;97929.78;7399152;19;20014;-58
2023/09/20 01:13:10;;;;;;;0.45;0.10;;;;;;;18.46;nan;97926.69;7397663;19;20359;-56
2023/09/20 01:15:37;;;;;;;0.00;0.00;;;;;;;18.20;nan;97919.53;7397258;19;20029;-55
2023/09/20 01:18:05;;;;;;;0.00;0.00;;;;;;;17.83;nan;97912.09;7398098;19;20010;-56
2023/09/20 01:20:39;;;;;;;0.00;0.00;;;;;;;18.02;nan;97918.72;7400280;19;20440;-56
2023/09/20 01:23:05;;;;;;;;;;;;;;;17.42;nan;97919.03;7401220;19;20041;-55
2023/09/20 01:25:35;;;;;;;0.10;0.00;;;;;;;18.12;nan;97924.50;7398126;19;19951;-55
2023/09/20 01:28:07;;;;;;;0.10;0.00;;;;;;;18.70;nan;97911.81;7398522;19;20355;-55
2023/09/20 01:30:39;;;;;;;4.23;0.40;;;;;;;18.08;nan;97902.34;7398985;19;20014;-54
2023/09/20 01:33:09;;;;;;;6.88;1.30;;;;;;;18.86;nan;97908.25;7399020;19;20010;-54
2023/09/20 01:35:37;;;;;;;1.30;0.32;;;;;;;18.80;nan;97904.94;7398121;19;20015;-55
2023/09/20 01:38:06;;;;;;;0.10;0.00;;;;;;;19.27;nan;97908.78;7399370;19;20032;-56
2023/09/20 01:40:36;;;;;;;0.00;0.00;;;;;;;19.28;nan;97902.53;7397926;19;20011;-56
2023/09/20 01:43:04;;;;;;;0.00;0.00;;;;;;;19.45;nan;97894.06;7399242;19;20015;-55
2023/09/20 01:45:39;;;;;;;0.10;0.00;;;;;;;19.25;nan;97892.41;7399099;19;20015;-56
2023/09/20 01:48:08;;;;;;;0.25;0.20;;;;;;;19.45;nan;97894.06;7400902;19;20579;-56
2023/09/20 01:50:35;;;;;;;1.27;0.10;;;;;;;19.52;nan;97893.25;7400546;19;20014;-56
2023/09/20 01:53:05;;;;;;;0.00;0.00;;;;;;;19.42;nan;97883.97;7399203;19;20015;-58
2023/09/20 01:55:42;;;;;;;0.00;0.00;;;;;;;19.36;nan;97891.91;7399085;19;20024;-57
2023/09/20 01:58:12;;;;;;;0.55;0.45;;;;;;;19.46;nan;97878.63;7395467;19;20010;-58
2023/09/20 02:00:40;;;;;;;0.00;0.00;;;;;;;19.26;nan;97868.50;7401387;19;20018;-57
2023/09/20 02:03:13;;;;;;;0.00;0.00;;;;;;;19.20;nan;97870.84;7397053;19;20066;-57
2023/09/20 02:05:40;;;;;;;0.45;0.30;;;;;;;19.15;nan;97854.91;7397441;19;20041;-62
2023/09/20 02:08:08;;;;;;;0.00;0.00;;;;;;;19.35;nan;97850.94;7396997;19;20011;-62
2023/09/20 02:10:36;;;;;;;0.43;0.10;;;;;;;19.54;nan;97848.22;7397236;19;20011;-62
2023/09/20 02:13:03;;;;;;;0.20;0.00;;;;;;;19.61;nan;97861.50;7403212;19;20017;-63
2023/09/20 02:15:31;;;;;;;0.00;0.00;;;;;;;19.43;nan;97850.81;7395409;19;20018;-63
2023/09/20 02:17:57;;;;;;;0.00;0.00;;;;;;;19.53;nan;97846.00;7396421;19;20023;-63
2023/09/20 02:20:33;;;;;;;0.00;0.00;;;;;;;19.49;nan;97852.03;7398564;19;20409;-63
2023/09/20 02:23:00;;;;;;;0.00;0.00;;;;;;;19.47;nan;97851.88;7394074;19;20033;-63
2023/09/20 02:25:26;;;;;;;0.03;0.00;;;;;;;19.17;nan;97835.31;7395471;19;20462;-63
2023/09/20 02:27:57;;;;;;;0.10;0.10;;;;;;;19.33;nan;97830.97;7396873;19;20011;-63
2023/09/20 02:30:24;;;;;;;0.08;0.08;;;;;;;19.14;nan;97830.09;7395987;19;20015;-63
2023/09/20 02:32:57;;;;;;;1.20;0.43;;;;;;;19.28;nan;97822.75;7398170;19;20090;-63
2023/09/20 02:35:28;;;;;;;0.00;0.00;;;;;;;19.48;nan;97827.97;7397237;19;20034;-63
2023/09/20 02:37:56;;;;;;;0.00;0.00;;;;;;;19.31;nan;97828.00;7401262;19;20339;-63
2023/09/20 02:40:23;;;;;;;0.00;0.00;;;;;;;19.31;nan;97822.34;7396275;19;20374;-62
2023/09/20 02:43:03;;;;;;;0.00;0.00;;;;;;;19.46;nan;97824.25;7396251;19;20018;-62
2023/09/20 02:45:29;;;;;;;0.15;0.08;;;;;;;19.31;nan;97822.34;7397878;19;20450;-62
2023/09/20 02:47:57;;;;;;;0.00;0.00;;;;;;;19.28;nan;97825.56;7399694;19;20019;-61
2023/09/20 02:50:33;;;;;;;0.00;0.00;;;;;;;19.28;nan;97817.88;7398521;19;20014;-58
2023/09/20 02:53:00;;;;;;;0.00;0.00;;;;;;;19.36;nan;97821.34;7393071;19;20070;-58
2023/09/20 02:55:28;;;;;;;0.10;0.00;;;;;;;19.44;nan;97807.91;7393522;19;20010;-57
2023/09/20 02:57:56;;;;;;;0.00;0.00;;;;;;;19.55;nan;97798.91;7394817;19;20014;-57
2023/09/20 03:00:27;;;;;;;0.25;0.25;;;;;;;19.41;nan;97802.66;7393881;19;20025;-58
2023/09/20 03:03:00;;;;;;;0.20;0.20;;;;;;;19.13;nan;97803.19;7395215;19;20031;-58
2023/09/20 03:05:33;;;;;;;0.00;0.00;;;;;;;19.54;nan;97783.28;7396193;19;20018;-57
2023/09/20 03:08:04;;;;;;;0.00;0.00;;;;;;;18.53;nan;97784.94;7395153;19;20462;-57
2023/09/20 03:10:31;;;;;;;0.00;0.00;;;;;;;19.46;nan;97796.00;7396131;19;20010;-58
2023/09/20 03:12:59;;;;;;;0.00;0.00;;;;;;;19.26;nan;97783.84;7394670;19;20033;-58
2023/09/20 03:15:31;;;;;;;0.00;0.00;;;;;;;18.73;nan;97792.97;7393395;19;20013;-58
2023/09/20 03:18:02;;;;;;;0.00;0.00;;;;;;;19.73;nan;97793.91;7394498;19;20034;-61
2023/09/20 03:20:35;;;;;;;0.00;0.00;;;;;;;19.98;nan;97782.41;7397398;19;20022;-57
2023/09/20 03:23:06;;;;;;;0.30;0.00;;;;;;;19.36;nan;97781.84;7395802;19;20294;-57
2023/09/20 03:25:40;;;;;;;0.10;0.10;;;;;;;19.62;nan;97778.25;7395728;19;20003;-58
2023/09/20 03:28:16;;;;;;;0.00;0.00;;;;;;;20.14;nan;97763.88;7395175;19;20070;-57
2023/09/20 03:30:43;;;;;;;0.00;0.00;;;;;;;20.14;nan;97741.97;7394618;19;20022;-56
2023/09/20 03:33:10;;;;;;;0.63;0.30;;;;;;;20.18;nan;97724.59;7394608;19;20073;-56
2023/09/20 03:35:37;;;;;;;0.00;0.00;;;;;;;20.14;nan;97741.25;7395207;19;20034;-56
2023/09/20 03:38:04;;;;;;;2.80;0.13;;;;;;;20.03;nan;97724.88;7396928;19;20357;-57
2023/09/20 03:40:31;;;;;;;0.45;0.08;;;;;;;20.11;nan;97717.00;7394905;19;20028;-57
2023/09/20 03:43:03;;;;;;;0.05;0.00;;;;;;;20.04;nan;97707.31;7394198;19;20018;-57
2023/09/20 03:45:31;;;;;;;0.28;0.10;;;;;;;20.07;nan;97702.56;7393621;19;20017;-57
2023/09/20 03:48:03;;;;;;;0.10;0.00;;;;;;;20.08;nan;97689.91;7394457;19;20011;-57
2023/09/20 03:50:30;;;;;;;0.10;0.00;;;;;;;20.17;nan;97695.56;7394406;19;20007;-57
2023/09/20 03:52:56;;;;;;;0.38;0.00;;;;;;;19.90;nan;97694.97;7394591;19;20007;-57
2023/09/20 03:55:23;;;;;;;0.90;0.20;;;;;;;19.97;nan;97687.66;7393165;19;20077;-58
2023/09/20 03:57:49;;;;;;;0.57;0.10;;;;;;;19.51;nan;97687.72;7395194;19;20026;-58
2023/09/20 04:00:28;;;;;;;0.65;0.28;;;;;;;19.85;nan;97689.56;7393991;19;20033;-58
2023/09/20 04:02:56;;;;;;;0.10;0.05;;;;;;;19.90;nan;97688.56;7393463;19;20348;-57
2023/09/20 04:05:24;;;;;;;0.03;0.00;;;;;;;19.92;nan;97680.97;7393507;19;20437;-57
2023/09/20 04:07:54;;;;;;;0.05;0.05;;;;;;;19.68;nan;97679.16;7392829;19;20021;-56
2023/09/20 04:10:21;;;;;;;0.00;0.00;;;;;;;20.07;nan;97657.34;7397255;19;20030;-56
2023/09/20 04:12:47;;;;;;;0.00;0.00;;;;;;;19.95;nan;97668.47;7395425;19;20083;-57
2023/09/20 04:15:14;;;;;;;0.32;0.20;;;;;;;19.79;nan;97684.22;7393741;19;20455;-57
2023/09/20 04:17:43;;;;;;;0.43;0.13;;;;;;;19.75;nan;97674.69;7393666;19;20066;-57
2023/09/20 04:20:11;;;;;;;0.00;0.00;;;;;;;19.65;nan;97671.84;7394875;19;20470;-56
2023/09/20 04:22:41;;;;;;;0.00;0.00;;;;;;;19.67;nan;97672.00;7393362;19;20454;-56
2023/09/20 04:25:10;;;;;;;0.65;0.65;;;;;;;19.33;nan;97684.19;7392519;19;20048;-57
2023/09/20 04:27:39;;;;;;;1.85;0.30;;;;;;;19.27;nan;97680.91;7392991;19;20003;-56
2023/09/20 04:30:08;;;;;;;0.30;0.30;;;;;;;20.06;nan;97682.03;7392709;19;20030;-56
2023/09/20 04:32:36;;;;;;;0.10;0.10;;;;;;;20.01;nan;97676.69;7395131;19;20011;-56
2023/09/20 04:35:04;;;;;;;0.20;0.20;;;;;;;20.27;nan;97675.84;7391078;19;20007;-57
2023/09/20 04:37:31;;;;;;;0.10;0.10;;;;;;;20.29;nan;97651.25;7392198;19;20011;-57
2023/09/20 04:39:57;;;;;;;0.65;0.40;;;;;;;20.29;nan;97645.59;7392201;19;20025;-57
2023/09/20 04:42:24;;;;;;;0.30;0.25;;;;;;;20.25;nan;97642.50;7392853;19;20017;-57
2023/09/20 04:44:51;;;;;;;0.00;0.00;;;;;;;20.28;nan;97649.03;7392677;19;20026;-56
2023/09/20 04:47:17;;;;;;;1.20;0.00;;;;;;;20.22;nan;97640.88;7389065;19;20087;-57
2023/09/20 04:49:45;;;;;;;0.00;0.00;;;;;;;20.26;nan;97649.66;7390523;19;20090;-56
2023/09/20 04:52:15;;;;;;;1.35;0.00;;;;;;;20.31;nan;97654.22;7389170;19;20007;-56
2023/09/20 04:54:44;;;;;;;1.42;0.40;;;;;;;20.11;nan;97652.00;7390744;19;20027;-56
2023/09/20 04:57:13;;;;;;;0.55;0.35;;;;;;;20.37;nan;97639.81;7392490;19;20082;-57
2023/09/20 04:59:42;;;;;;;0.10;0.00;;;;;;;20.38;nan;97646.94;7390001;19;20021;-57
2023/09/20 05:02:09;;;;;;;0.43;0.20;;;;;;;20.41;nan;97651.41;7390974;19;20019;-57
2023/09/20 05:04:38;;;;;;;0.10;0.10;;;;;;;20.28;nan;97652.63;7392107;19;20011;-57
2023/09/20 05:07:05;;;;;;;0.22;0.13;;;;;;;20.25;nan;97655.88;7394725;19;20027;-57
2023/09/20 05:09:35;;;;;;;0.68;0.20;;;;;;;20.14;nan;97667.78;7392557;19;20034;-59
2023/09/20 05:12:09;;;;;;;0.10;0.10;;;;;;;20.14;nan;97670.59;7392545;19;20034;-58
2023/09/20 05:14:36;;;;;;;0.00;0.00;;;;;;;20.07;nan;97652.44;7391921;19;20014;-59
2023/09/20 05:17:04;;;;;;;1.30;0.50;;;;;;;20.04;nan;97672.66;7395456;19;20034;-60
2023/09/20 05:19:30;;;;;;;0.15;0.00;;;;;;;19.99;nan;97656.75;7391580;19;20470;-59
2023/09/20 05:21:57;;;;;;;2.55;0.40;;;;;;;19.93;nan;97664.75;7391811;19;20358;-59
2023/09/20 05:24:25;;;;;;;0.95;0.35;;;;;;;20.02;nan;97652.72;7391466;19;20066;-59
2023/09/20 05:26:51;;;;;;;0.17;0.17;;;;;;;19.87;nan;97645.28;7390841;19;20007;-58
2023/09/20 05:29:18;;;;;;;0.22;0.22;;;;;;;19.84;nan;97648.56;7393383;19;20066;-58
2023/09/20 05:31:44;;;;;;;0.22;0.10;;;;;;;19.85;nan;97638.72;7390826;19;20010;-58
2023/09/20 05:34:11;;;;;;;0.50;0.50;;;;;;;19.84;nan;97648.56;7395127;19;20014;-59
2023/09/20 05:36:37;;;;;;;4.13;0.30;;;;;;;19.65;nan;97640.78;7398574;19;20011;-59
2023/09/20 05:39:07;;;;;;;0.55;0.40;;;;;;;19.64;nan;97636.47;7401133;19;20017;-58
2023/09/20 05:41:36;;;;;;;2.30;0.57;;;;;;;19.58;nan;97648.03;7403511;19;20015;-58
2023/09/20 05:44:04;;;;;;;0.90;0.30;;;;;;;19.58;nan;97642.41;7399482;19;20407;-59
2023/09/20 05:46:31;;;;;;;1.92;0.47;;;;;;;19.44;nan;97641.34;7400257;19;20010;-60
2023/09/20 05:48:57;;;;;;;1.55;0.50;;;;;;;19.49;nan;97639.56;7398913;19;20010;-60
2023/09/20 05:51:32;;;;;;;0.30;0.30;;;;;;;19.44;nan;97652.63;7401949;19;20466;-58
2023/09/20 05:53:58;;;;;;;0.70;0.40;;;;;;;19.46;nan;97652.78;7400139;19;20015;-58
2023/09/20 05:56:25;;;;;;;4.78;1.17;;;;;;;19.39;nan;97670.56;7394983;19;20477;-58
2023/09/20 05:58:53;;;;;;;7.53;1.23;;;;;;;19.28;nan;97664.69;7397230;19;20025;-58
2023/09/20 06:01:20;;;;;;;1.20;0.50;;;;;;;19.17;nan;97666.00;7396878;19;20037;-58
2023/09/20 06:03:50;;;;;;;0.15;0.15;;;;;;;18.82;nan;97670.28;7398814;19;20002;-58
2023/09/20 06:06:17;;;;;;;0.70;0.55;;;;;;;19.25;nan;97683.56;7397345;19;20432;-58
2023/09/20 06:08:45;;;;;;;0.20;0.10;;;;;;;18.79;nan;97677.09;7397376;19;20028;-59
2023/09/20 06:11:11;;;;;;;0.10;0.00;;;;;;;19.91;nan;97661.78;7397439;19;20025;-59
2023/09/20 06:13:38;;;;;;;6.22;0.73;;;;;;;19.59;nan;97666.50;7397876;19;20328;-58
2023/09/20 06:16:17;;;;;;;0.52;0.28;;;;;;;20.27;nan;97659.59;7396095;19;20023;-58
2023/09/20 06:18:44;;;;;;;4.10;0.88;;;;;;;21.75;nan;97662.31;7395289;19;20346;-61
2023/09/20 06:21:13;;;;;;;0.52;0.40;;;;;;;21.44;nan;97655.94;7396702;19;20031;-60
2023/09/20 06:23:44;;;;;;;3.90;0.40;;;;;;;21.70;nan;97643.56;7399143;19;20379;-61
2023/09/20 06:26:12;;;;;;;;;;;;;;;21.40;nan;97644.31;7395913;19;20017;-61
2023/09/20 06:28:42;;;;;;;3.05;0.47;;;;;;;21.39;nan;97628.66;7396155;19;20351;-62
2023/09/20 06:31:16;;;;;;;2.47;0.75;;;;;;;20.81;nan;97637.34;7394750;19;20034;-61
2023/09/20 06:33:46;;;;;;;0.10;0.08;;;;;;;20.66;nan;97632.00;7397761;19;20018;-61
2023/09/20 06:36:17;;;;;;;1.52;0.63;;;;;;;22.05;nan;97616.19;7396073;19;20010;-61
2023/09/20 06:38:43;;;;;;;0.95;0.60;;;;;;;22.10;nan;97611.53;7399848;19;20415;-61
2023/09/20 06:41:10;;;;;;;1.33;0.17;;;;;;;22.05;nan;97599.16;7396204;19;20014;-62
2023/09/20 06:43:36;;;;;;;1.10;0.40;;;;;;;22.59;nan;97593.47;7398014;19;20029;-61
2023/09/20 06:46:06;;;;;;;0.63;0.30;;;;;;;22.47;nan;97575.66;7395428;19;20494;-62
2023/09/20 06:48:33;;;;;;;0.28;0.28;;;;;;;21.16;nan;97546.41;7395144;19;20011;-63
2023/09/20 06:51:00;;;;;;;0.10;0.00;;;;;;;22.26;nan;97550.91;7401489;19;20011;-61
2023/09/20 06:53:30;;;;;;;1.90;0.43;;;;;;;22.32;nan;97565.50;7395804;19;20320;-60
2023/09/20 06:55:59;;;;;;;3.10;0.98;;;;;;;22.24;nan;97564.25;7394160;19;20010;-59
2023/09/20 06:58:26;;;;;;;0.50;0.28;;;;;;;19.36;nan;97581.41;7395967;19;20011;-60
2023/09/20 07:00:53;;;;;;;1.30;0.88;;;;;;;18.95;nan;97593.72;7395913;19;20010;-60
2023/09/20 07:03:20;;;;;;;0.85;0.20;;;;;;;19.00;nan;97606.84;7398872;19;20011;-60
2023/09/20 07:05:46;;;;;;;1.48;0.20;;;;;;;18.98;nan;97620.78;7395576;19;20043;-61
2023/09/20 07:08:12;;;;;;;0.57;0.32;;;;;;;18.69;nan;97611.44;7394952;19;20025;-60
2023/09/20 07:10:41;;;;;;;0.55;0.32;;;;;;;18.86;nan;97620.56;7394452;19;20011;-60
2023/09/20 07:13:10;;;;;;;0.22;0.22;;;;;;;18.97;nan;97605.19;7397558;19;20006;-61
2023/09/20 07:15:36;;;;;;;2.28;0.45;;;;;;;19.05;nan;97597.34;7395912;19;20066;-61
2023/09/20 07:18:12;;;;;;;1.08;0.25;;;;;;;18.95;nan;97609.94;7396605;19;20014;-61
2023/09/20 07:20:42;;;;;;;0.75;0.50;;;;;;;20.27;nan;97602.34;7398070;19;20022;-62
2023/09/20 07:23:09;;;;;;;;;;;;;;;20.21;nan;97607.53;7398559;19;20006;-61
2023/09/20 07:25:37;;;;;;;0.10;0.10;;;;;;;19.55;nan;97606.13;7394201;19;19911;-61
2023/09/20 07:28:04;;;;;;;0.65;0.45;;;;;;;19.51;nan;97592.44;7395932;19;20010;-61
2023/09/20 07:30:34;;;;;;;0.10;0.10;;;;;;;21.44;nan;97588.69;7393853;19;20022;-62
2023/09/20 07:33:03;;;;;;;6.73;0.83;;;;;;;21.03;nan;97571.03;7395674;19;20014;-60
2023/09/20 07:35:38;;;;;;;0.68;0.40;;;;;;;20.10;nan;97571.34;7395133;19;20015;-61
2023/09/20 07:38:12;;;;;;;1.45;0.30;;;;;;;21.79;nan;97557.72;7397209;19;20025;-60
2023/09/20 07:40:40;;;;;;;2.03;1.27;;;;;;;20.93;nan;97541.25;7393847;19;20022;-61
2023/09/20 07:43:07;;;;;;;1.05;0.45;;;;;;;22.00;nan;97506.72;7395982;19;20011;-61
2023/09/20 07:45:41;;;;;;;1.23;0.22;;;;;;;22.34;nan;97497.56;7395276;19;20010;-61
2023/09/20 07:48:12;;;;;;;6.03;0.40;;;;;;;20.58;nan;97490.03;7394685;19;20462;-61
2023/09/20 07:50:43;;;;;;;0.50;0.10;;;;;;;22.65;nan;97471.13;7397612;19;20074;-62
2023/09/20 07:53:13;;;;;;;1.00;0.10;;;;;;;21.29;nan;97460.94;7395599;19;20018;-62
2023/09/20 07:55:48;;;;;;;0.45;0.20;;;;;;;21.56;nan;97447.13;7391460;19;20458;-62
2023/09/20 07:58:15;;;;;;;0.47;0.30;;;;;;;21.04;nan;97445.16;7394062;19;20050;-61
2023/09/20 08:00:49;;;;;;;0.30;0.30;;;;;;;20.19;nan;97432.13;7394407;19;20454;-61
2023/09/20 08:03:18;;;;;;;0.65;0.65;;;;;;;19.46;nan;97410.00;7396431;19;20007;-61
2023/09/20 08:05:44;;;;;;;0.50;0.30;;;;;;;19.23;nan;97454.81;7394393;19;20061;-61
2023/09/20 08:08:12;;;;;;;0.30;0.20;;;;;;;19.21;nan;97453.94;7394759;19;20006;-61
2023/09/20 08:10:40;;;;;;;1.13;0.47;;;;;;;20.17;nan;97494.16;7393875;19;20048;-61
2023/09/20 08:13:08;;;;;;;1.08;0.28;;;;;;;20.46;nan;97505.41;7395140;19;20014;-61
2023/09/20 08:15:48;;;;;;;;;;;;;;;19.77;nan;97483.53;7392328;19;20006;-61
2023/09/20 08:21:01;;;;;;;1.38;0.52;;;;;;;21.34;nan;97490.97;7395492;19;20093;-61
2023/09/20 09:02:17;;;;;;;0.85;0.35;;;;;;;20.37;nan;97476.59;7392851;19;20022;-59
2023/09/20 09:04:45;;;;;;;1.67;0.45;;;;;;;19.49;nan;97476.53;7393421;19;20078;-62
2023/09/20 09:07:14;;;;;;;0.47;0.30;;;;;;;26.06;nan;97460.78;7393827;19;20366;-61
2023/09/20 09:09:46;;;;;;;0.10;0.10;;;;;;;21.32;nan;97468.19;7400303;19;20022;-61
2023/09/20 09:12:13;;;;;;;1.38;0.65;;;;;;;21.48;nan;97475.69;7398221;19;20365;-62
2023/09/20 09:14:40;;;;;;;1.55;0.40;;;;;;;19.18;nan;97472.78;7398289;19;20018;-61
2023/09/20 09:17:17;;;;;;;1.30;0.47;;;;;;;18.70;nan;97483.97;7398436;19;20078;-61
2023/09/20 09:19:44;;;;;;;0.35;0.30;;;;;;;19.22;nan;97478.00;7400654;19;20006;-62
2023/09/20 09:22:10;;;;;;;2.05;0.22;;;;;;;19.00;nan;97471.41;7399523;19;20015;-62
2023/09/20 09:24:43;;;;;;;1.27;0.52;;;;;;;18.65;nan;97475.78;7398171;19;20346;-61
2023/09/20 09:27:10;;;;;;;0.70;0.40;;;;;;;19.74;nan;97478.31;7400576;19;20010;-62
2023/09/20 09:29:45;;;;;;;0.85;0.40;;;;;;;19.70;nan;97472.38;7399508;19;20462;-62
2023/09/20 09:32:13;;;;;;;1.10;0.63;;;;;;;21.82;nan;97451.69;7399380;19;20015;-61
2023/09/20 09:34:41;;;;;;;4.32;0.28;;;;;;;35.88;nan;97440.94;7399556;19;20018;-61
2023/09/20 09:37:11;;;;;;;4.18;0.93;;;;;;;38.72;nan;97424.41;7399188;19;20123;-60
2023/09/20 09:39:39;;;;;;;0.57;0.40;;;;;;;23.94;nan;97434.00;7402756;19;20018;-57
2023/09/20 09:42:06;;;;;;;1.98;0.65;;;;;;;19.60;nan;97438.50;7400463;19;20089;-57
2023/09/20 09:44:49;;;;;;;0.85;0.30;;;;;;;19.16;nan;97426.75;7402824;19;20017;-57
2023/09/20 09:47:17;;;;;;;0.63;0.38;;;;;;;19.14;nan;97427.34;7399884;19;20010;-57
2023/09/20 09:49:45;;;;;;;5.05;0.57;;;;;;;19.01;nan;97436.25;7400598;19;20014;-57
2023/09/20 09:52:12;;;;;;;2.05;0.43;;;;;;;18.23;nan;97436.59;7397989;19;20007;-56
2023/09/20 09:54:39;;;;;;;3.60;0.40;;;;;;;19.68;nan;97445.47;7396508;19;20489;-56
2023/09/20 09:57:05;;;;;;;0.77;0.10;;;;;;;19.47;nan;97431.22;7397963;19;20021;-56
2023/09/20 09:59:31;;;;;;;3.40;0.68;;;;;;;20.97;nan;97414.94;7399679;19;20010;-56
2023/09/20 10:02:00;;;;;;;0.10;0.10;;;;;;;20.32;nan;97420.34;7397092;19;20015;-55
2023/09/20 10:04:33;;;;;;;0.88;0.52;;;;;;;19.13;nan;97423.03;7403625;19;20068;-57
2023/09/20 10:07:16;;;;;;;3.70;0.43;;;;;;;19.23;nan;97423.06;7398928;19;20342;-58
2023/09/20 10:09:50;;;;;;;3.05;0.65;;;;;;;19.40;nan;97408.81;7399566;19;20011;-59
2023/09/20 10:12:19;;;;;;;1.67;0.50;;;;;;;20.04;nan;97392.91;7397325;19;20067;-59
2023/09/20 10:14:46;;;;;;;0.95;0.20;;;;;;;20.11;nan;97387.09;7398677;19;20034;-59
2023/09/20 10:17:20;;;;;;;1.05;0.30;;;;;;;20.21;nan;97378.59;7398093;19;20042;-59
2023/09/20 10:19:52;;;;;;;0.95;0.30;;;;;;;20.64;nan;97380.16;7395119;19;20066;-58
2023/09/20 10:22:25;;;;;;;0.35;0.35;;;;;;;20.42;nan;97387.13;7396170;19;20018;-59
2023/09/20 10:24:55;;;;;;;5.57;0.57;;;;;;;20.31;nan;97382.13;7397604;19;20010;-59
2023/09/20 10:27:26;;;;;;;1.23;0.52;;;;;;;20.14;nan;97379.50;7396585;19;20027;-59
2023/09/20 10:30:11;;;;;;;0.22;0.10;;;;;;;26.18;nan;97363.66;7399097;19;20019;-58
2023/09/20 10:33:02;;;;;;;1.23;0.35;;;;;;;21.32;nan;97383.25;7397074;19;20088;-58
2023/09/20 10:35:39;;;;;;;0.73;0.20;;;;;;;19.66;nan;97382.47;7393670;19;20015;-58
2023/09/20 10:38:11;;;;;;;0.20;0.20;;;;;;;20.55;nan;97383.78;7396918;19;20022;-58
2023/09/20 10:40:57;;;;;;;0.10;0.10;;;;;;;19.92;nan;97377.94;7399815;19;20011;-58
2023/09/20 10:43:35;;;;;;;0.05;0.05;;;;;;;19.58;nan;97393.91;7395313;19;20483;-58
2023/09/20 10:46:17;;;;;;;0.77;0.22;;;;;;;19.67;nan;97379.03;7394173;19;20387;-58
2023/09/20 10:49:47;;;;;;;0.30;0.20;;;;;;;20.00;nan;97358.72;7393039;19;20014;-58
2023/09/20 10:52:37;;;;;;;0.38;0.35;;;;;;;20.41;nan;97354.53;7397002;19;20355;-58
2023/09/20 10:58:34;;;;;;;1.63;0.85;;;;;;;21.26;nan;97346.06;7398123;19;20023;-56
2023/09/20 11:01:03;;;;;;;0.52;0.30;;;;;;;21.12;nan;97362.84;7393518;19;20018;-57
2023/09/20 11:03:29;;;;;;;0.17;0.17;;;;;;;20.72;nan;97375.06;7396672;19;20015;-56
2023/09/20 11:06:01;;;;;;;1.30;0.20;;;;;;;21.46;nan;97367.19;7393273;19;20079;-56
2023/09/20 11:08:28;;;;;;;0.10;0.10;;;;;;;21.73;nan;97370.34;7393271;19;20025;-56
2023/09/20 11:10:59;;;;;;;0.32;0.15;;;;;;;22.22;nan;97362.81;7392452;19;20244;-56
2023/09/20 11:13:26;;;;;;;2.85;0.65;;;;;;;21.45;nan;97357.94;7394834;19;20015;-56
2023/09/20 11:16:02;;;;;;;0.65;0.13;;;;;;;22.16;nan;97354.66;7392738;19;20823;-58
2023/09/20 11:22:19;;;;;;;0.60;0.50;;;;;;;21.36;nan;97406.16;7394674;19;20027;-58
2023/09/20 11:25:36;;;;;;;0.50;0.17;;;;;;;21.13;nan;97421.72;7395608;19;20102;-59
2023/09/20 11:28:08;;;;;;;0.52;0.20;;;;;;;20.05;nan;97433.97;7395940;19;20023;-57
2023/09/20 11:30:38;;;;;;;0.00;0.00;;;;;;;20.15;nan;97440.31;7393869;19;20037;-58
2023/09/20 11:33:07;;;;;;;0.10;0.10;;;;;;;19.87;nan;97441.13;7397534;19;20481;-59
2023/09/20 11:35:40;;;;;;;0.00;0.00;;;;;;;19.94;nan;97462.84;7394349;19;20015;-57
2023/09/20 11:38:08;;;;;;;0.10;0.10;;;;;;;18.69;nan;97459.91;7399715;19;20014;-57
2023/09/20 11:40:36;;;;;;;0.20;0.20;;;;;;;25.45;nan;97456.31;7394965;19;20070;-57
2023/09/20 11:49:03;;;;;;;0.38;0.38;;;;;;;22.50;nan;97456.00;7392650;19;20453;-84
2023/09/20 11:51:30;;;;;;;0.38;0.20;;;;;;;20.26;nan;97479.28;7396663;19;20025;-85
2023/09/20 11:53:58;;;;;;;0.32;0.20;;;;;;;19.94;nan;97482.63;7394361;19;20015;-84
2023/09/20 11:56:31;;;;;;;0.38;0.25;;;;;;;20.82;nan;97480.41;7389925;19;20032;-85
2023/09/20 11:59:03;;;;;;;0.95;0.10;;;;;;;19.75;nan;97469.25;7391969;19;20014;-86
2023/09/20 12:01:38;;;;;;;0.25;0.17;;;;;;;19.21;nan;97462.41;7391118;19;20021;-87
2023/09/20 12:04:04;;;;;;;1.75;0.10;;;;;;;21.08;nan;97439.75;7393370;19;20017;-84
2023/09/20 12:06:31;;;;;;;0.00;0.00;;;;;;;21.38;nan;97443.09;7391038;19;20022;-88
2023/09/20 12:09:03;;;;;;;11.25;0.30;;;;;;;21.12;nan;97457.00;7390956;19;20038;-83
2023/09/20 12:11:29;;;;;;;0.08;0.05;;;;;;;21.74;nan;97451.88;7389017;19;20007;-82
2023/09/20 12:13:56;;;;;;;0.00;0.00;;;;;;;22.26;nan;97451.66;7395514;19;20015;-85
2023/09/20 12:16:23;;;;;;;2.83;0.20;;;;;;;21.11;nan;97466.84;7389367;19;20690;-85
2023/09/20 12:18:58;;;;;;;0.10;0.00;;;;;;;21.60;nan;97475.72;7388449;19;20014;-84
2023/09/20 12:21:25;;;;;;;0.85;0.30;;;;;;;22.16;nan;97479.41;7388019;19;20033;-85
2023/09/20 12:23:51;;;;;;;3.05;0.63;;;;;;;21.47;nan;97484.78;7390878;19;20014;-85
2023/09/20 12:26:18;;;;;;;0.00;0.00;;;;;;;21.11;nan;97488.75;7387440;19;20330;-84
2023/09/20 12:28:47;;;;;;;5.50;0.20;;;;;;;18.84;nan;97493.50;7388307;19;20469;-85
2023/09/20 12:31:13;;;;;;;0.80;0.17;;;;;;;18.93;nan;97492.78;7389714;19;20057;-85
2023/09/20 12:33:40;;;;;;;5.88;0.20;;;;;;;18.56;nan;97488.50;7391913;19;20014;-84
2023/09/20 12:36:10;;;;;;;1.30;0.10;;;;;;;18.72;nan;97492.59;7388024;19;20014;-84
2023/09/20 12:38:36;;;;;;;;;;;;;;;18.90;nan;97499.63;7388287;19;20002;-84
2023/09/20 12:41:02;;;;;;;2.90;0.32;;;;;;;19.39;nan;97489.91;7389475;19;20626;-84
2023/09/20 12:43:28;;;;;;;0.00;0.00;;;;;;;18.19;nan;97481.34;7396779;19;20034;-84
2023/09/20 12:45:57;;;;;;;0.10;0.10;;;;;;;18.66;nan;97489.31;7397131;19;20014;-84
2023/09/20 12:48:23;;;;;;;0.20;0.20;;;;;;;17.43;nan;97498.44;7395079;19;20078;-84
2023/09/20 12:50:49;;;;;;;0.32;0.10;;;;;;;17.87;nan;97502.03;7396412;19;20090;-84
2023/09/20 12:53:15;;;;;;;0.03;0.03;;;;;;;18.41;nan;97496.44;7398015;19;20085;-84
2023/09/20 12:55:42;;;;;;;5.43;0.70;;;;;;;17.03;nan;97501.47;7394613;19;20492;-86
2023/09/20 12:58:10;;;;;;;7.38;0.63;;;;;;;18.86;nan;97504.22;7395891;19;20038;-86